sensor_id;sensor_type;location;lat;lon;timestamp;pressure;altitude;pressure_sealevel;temperature;humidity
41306;BME280;27051;50.376;19.152;2023-03-12T00:01:22;97458.50;;;0.54;64.42
41306;BME280;27051;50.376;19.152;2023-03-12T00:03:52;97466.16;;;0.60;64.51
41306;BME280;27051;50.376;19.152;2023-03-12T00:06:20;97470.89;;;0.67;64.49
41306;BME280;27051;50.376;19.152;2023-03-12T00:08:49;97472.80;;;0.72;64.24
41306;BME280;27051;50.376;19.152;2023-03-12T00:11:18;97471.55;;;0.74;64.39
41306;BME280;27051;50.376;19.152;2023-03-12T00:13:50;97476.96;;;0.79;64.31
41306;BME280;27051;50.376;19.152;2023-03-12T00:16:18;97481.89;;;0.82;64.10
41306;BME280;27051;50.376;19.152;2023-03-12T00:18:48;97476.50;;;0.75;64.19
41306;BME280;27051;50.376;19.152;2023-03-12T00:21:15;97474.66;;;0.75;64.09
41306;BME280;27051;50.376;19.152;2023-03-12T00:23:43;97473.28;;;0.69;63.81
41306;BME280;27051;50.376;19.152;2023-03-12T00:26:13;97480.58;;;0.72;63.58
41306;BME280;27051;50.376;19.152;2023-03-12T00:28:45;97481.29;;;0.70;63.51
41306;BME280;27051;50.376;19.152;2023-03-12T00:31:21;97491.05;;;0.65;63.65
41306;BME280;27051;50.376;19.152;2023-03-12T00:33:48;97489.16;;;0.58;63.66
41306;BME280;27051;50.376;19.152;2023-03-12T00:36:16;97497.30;;;0.55;63.72
41306;BME280;27051;50.376;19.152;2023-03-12T00:38:43;97499.96;;;0.54;63.67
41306;BME280;27051;50.376;19.152;2023-03-12T00:41:09;97504.73;;;0.54;63.82
41306;BME280;27051;50.376;19.152;2023-03-12T00:43:36;97504.60;;;0.50;63.74
41306;BME280;27051;50.376;19.152;2023-03-12T00:46:02;97504.72;;;0.47;63.96
41306;BME280;27051;50.376;19.152;2023-03-12T00:48:30;97502.30;;;0.49;64.06
41306;BME280;27051;50.376;19.152;2023-03-12T00:50:57;97503.19;;;0.57;64.05
41306;BME280;27051;50.376;19.152;2023-03-12T00:53:24;97502.19;;;0.56;63.86
41306;BME280;27051;50.376;19.152;2023-03-12T00:55:51;97501.98;;;0.53;63.82
41306;BME280;27051;50.376;19.152;2023-03-12T00:58:18;97495.77;;;0.37;63.95
41306;BME280;27051;50.376;19.152;2023-03-12T01:00:46;97501.41;;;0.31;63.83
41306;BME280;27051;50.376;19.152;2023-03-12T01:03:13;97502.65;;;0.32;63.97
41306;BME280;27051;50.376;19.152;2023-03-12T01:05:41;97503.02;;;0.44;63.87
41306;BME280;27051;50.376;19.152;2023-03-12T01:08:08;97501.80;;;0.50;63.94
41306;BME280;27051;50.376;19.152;2023-03-12T01:10:40;97504.11;;;0.55;63.72
41306;BME280;27051;50.376;19.152;2023-03-12T01:13:07;97505.61;;;0.54;63.81
41306;BME280;27051;50.376;19.152;2023-03-12T01:15:35;97502.73;;;0.52;63.92
41306;BME280;27051;50.376;19.152;2023-03-12T01:18:05;97505.20;;;0.50;63.90
41306;BME280;27051;50.376;19.152;2023-03-12T01:20:32;97503.78;;;0.49;63.83
41306;BME280;27051;50.376;19.152;2023-03-12T01:22:59;97506.36;;;0.48;63.76
41306;BME280;27051;50.376;19.152;2023-03-12T01:25:27;97501.25;;;0.46;63.84
41306;BME280;27051;50.376;19.152;2023-03-12T01:27:54;97499.68;;;0.47;63.90
41306;BME280;27051;50.376;19.152;2023-03-12T01:30:21;97502.11;;;0.51;63.87
41306;BME280;27051;50.376;19.152;2023-03-12T01:32:47;97504.19;;;0.51;63.88
41306;BME280;27051;50.376;19.152;2023-03-12T01:35:14;97497.75;;;0.39;63.86
41306;BME280;27051;50.376;19.152;2023-03-12T01:37:40;97494.20;;;0.35;63.92
41306;BME280;27051;50.376;19.152;2023-03-12T01:40:10;97496.40;;;0.33;63.95
41306;BME280;27051;50.376;19.152;2023-03-12T01:42:41;97497.61;;;0.44;63.95
41306;BME280;27051;50.376;19.152;2023-03-12T01:48:31;97499.48;;;0.54;63.68
41306;BME280;27051;50.376;19.152;2023-03-12T01:51:03;97498.48;;;0.46;63.61
41306;BME280;27051;50.376;19.152;2023-03-12T01:53:30;97500.70;;;0.43;63.74
41306;BME280;27051;50.376;19.152;2023-03-12T01:55:58;97500.92;;;0.35;63.64
41306;BME280;27051;50.376;19.152;2023-03-12T01:58:26;97505.05;;;0.31;63.81
41306;BME280;27051;50.376;19.152;2023-03-12T02:00:58;97509.58;;;0.28;63.73
41306;BME280;27051;50.376;19.152;2023-03-12T02:03:26;97508.50;;;0.23;63.85
41306;BME280;27051;50.376;19.152;2023-03-12T02:06:01;97511.82;;;0.19;63.74
41306;BME280;27051;50.376;19.152;2023-03-12T02:08:28;97510.48;;;0.13;63.96
41306;BME280;27051;50.376;19.152;2023-03-12T02:10:55;97510.15;;;0.06;64.00
41306;BME280;27051;50.376;19.152;2023-03-12T02:13:26;97514.65;;;0.06;64.01
41306;BME280;27051;50.376;19.152;2023-03-12T02:15:54;97521.98;;;0.11;64.05
41306;BME280;27051;50.376;19.152;2023-03-12T02:18:25;97525.44;;;0.25;64.10
41306;BME280;27051;50.376;19.152;2023-03-12T02:21:04;97525.45;;;0.32;64.04
41306;BME280;27051;50.376;19.152;2023-03-12T02:26:17;97526.65;;;0.40;63.90
41306;BME280;27051;50.376;19.152;2023-03-12T02:28:49;97529.86;;;0.38;63.74
41306;BME280;27051;50.376;19.152;2023-03-12T02:31:25;97531.13;;;0.34;63.65
41306;BME280;27051;50.376;19.152;2023-03-12T02:33:53;97533.06;;;0.27;63.59
41306;BME280;27051;50.376;19.152;2023-03-12T02:36:21;97536.74;;;0.21;63.61
41306;BME280;27051;50.376;19.152;2023-03-12T02:38:52;97539.23;;;0.15;63.67
41306;BME280;27051;50.376;19.152;2023-03-12T02:41:23;97542.80;;;0.11;63.64
41306;BME280;27051;50.376;19.152;2023-03-12T02:46:23;97547.73;;;-0.04;63.58
41306;BME280;27051;50.376;19.152;2023-03-12T02:48:54;97547.66;;;-0.12;63.67
41306;BME280;27051;50.376;19.152;2023-03-12T02:51:22;97543.52;;;-0.28;63.76
41306;BME280;27051;50.376;19.152;2023-03-12T02:53:53;97549.66;;;-0.33;63.90
41306;BME280;27051;50.376;19.152;2023-03-12T02:56:22;97558.45;;;-0.26;63.88
41306;BME280;27051;50.376;19.152;2023-03-12T02:58:50;97562.39;;;-0.24;63.79
41306;BME280;27051;50.376;19.152;2023-03-12T03:01:18;97564.04;;;-0.25;63.68
41306;BME280;27051;50.376;19.152;2023-03-12T03:03:46;97562.27;;;-0.27;63.69
41306;BME280;27051;50.376;19.152;2023-03-12T03:06:13;97565.23;;;-0.29;63.79
41306;BME280;27051;50.376;19.152;2023-03-12T03:08:40;97570.13;;;-0.32;63.83
41306;BME280;27051;50.376;19.152;2023-03-12T03:11:07;97566.62;;;-0.35;63.82
41306;BME280;27051;50.376;19.152;2023-03-12T03:13:34;97569.59;;;-0.35;63.77
41306;BME280;27051;50.376;19.152;2023-03-12T03:16:03;97575.27;;;-0.38;63.79
41306;BME280;27051;50.376;19.152;2023-03-12T03:18:31;97580.35;;;-0.44;63.73
41306;BME280;27051;50.376;19.152;2023-03-12T03:21:01;97584.39;;;-0.47;63.87
41306;BME280;27051;50.376;19.152;2023-03-12T03:23:30;97575.87;;;-0.62;63.87
41306;BME280;27051;50.376;19.152;2023-03-12T03:25:57;97580.80;;;-0.64;63.94
41306;BME280;27051;50.376;19.152;2023-03-12T03:28:26;97591.70;;;-0.56;63.87
41306;BME280;27051;50.376;19.152;2023-03-12T03:30:55;97594.56;;;-0.56;63.82
41306;BME280;27051;50.376;19.152;2023-03-12T03:33:23;97601.72;;;-0.54;63.89
41306;BME280;27051;50.376;19.152;2023-03-12T03:35:50;97602.66;;;-0.54;63.87
41306;BME280;27051;50.376;19.152;2023-03-12T03:38:22;97606.16;;;-0.56;63.86
41306;BME280;27051;50.376;19.152;2023-03-12T03:40:50;97612.63;;;-0.58;63.95
41306;BME280;27051;50.376;19.152;2023-03-12T03:43:17;97611.83;;;-0.63;63.94
41306;BME280;27051;50.376;19.152;2023-03-12T03:45:44;97613.65;;;-0.66;63.82
41306;BME280;27051;50.376;19.152;2023-03-12T03:48:11;97614.40;;;-0.67;63.91
41306;BME280;27051;50.376;19.152;2023-03-12T03:50:40;97615.02;;;-0.72;63.76
41306;BME280;27051;50.376;19.152;2023-03-12T03:53:08;97612.33;;;-0.85;63.89
41306;BME280;27051;50.376;19.152;2023-03-12T03:55:36;97615.81;;;-0.86;63.90
41306;BME280;27051;50.376;19.152;2023-03-12T03:58:05;97623.29;;;-0.76;63.72
41306;BME280;27051;50.376;19.152;2023-03-12T04:00:32;97623.99;;;-0.73;63.83
41306;BME280;27051;50.376;19.152;2023-03-12T04:03:13;97623.37;;;-0.66;63.76
41306;BME280;27051;50.376;19.152;2023-03-12T04:05:42;97625.27;;;-0.66;63.74
41306;BME280;27051;50.376;19.152;2023-03-12T04:08:14;97620.48;;;-0.68;63.56
41306;BME280;27051;50.376;19.152;2023-03-12T04:10:42;97618.87;;;-0.71;63.38
41306;BME280;27051;50.376;19.152;2023-03-12T04:13:09;97622.21;;;-0.73;63.50
41306;BME280;27051;50.376;19.152;2023-03-12T04:15:35;97621.37;;;-0.73;63.56
41306;BME280;27051;50.376;19.152;2023-03-12T04:18:04;97621.06;;;-0.76;63.23
41306;BME280;27051;50.376;19.152;2023-03-12T04:20:31;97622.27;;;-0.79;63.36
41306;BME280;27051;50.376;19.152;2023-03-12T04:23:10;97615.34;;;-0.94;63.42
41306;BME280;27051;50.376;19.152;2023-03-12T04:25:38;97621.20;;;-0.94;63.55
41306;BME280;27051;50.376;19.152;2023-03-12T04:28:05;97631.15;;;-0.82;63.42
41306;BME280;27051;50.376;19.152;2023-03-12T04:30:31;97637.07;;;-0.78;63.34
41306;BME280;27051;50.376;19.152;2023-03-12T04:32:58;97641.17;;;-0.75;63.11
41306;BME280;27051;50.376;19.152;2023-03-12T04:35:27;97638.79;;;-0.74;63.15
41306;BME280;27051;50.376;19.152;2023-03-12T04:37:54;97639.79;;;-0.74;62.89
41306;BME280;27051;50.376;19.152;2023-03-12T04:40:21;97641.46;;;-0.79;62.90
41306;BME280;27051;50.376;19.152;2023-03-12T04:42:48;97641.02;;;-0.82;62.80
41306;BME280;27051;50.376;19.152;2023-03-12T04:45:15;97643.20;;;-0.84;62.83
41306;BME280;27051;50.376;19.152;2023-03-12T04:47:42;97642.05;;;-0.87;62.84
41306;BME280;27051;50.376;19.152;2023-03-12T04:50:11;97646.34;;;-0.87;62.84
41306;BME280;27051;50.376;19.152;2023-03-12T04:52:39;97647.25;;;-0.91;62.78
41306;BME280;27051;50.376;19.152;2023-03-12T04:55:06;97652.61;;;-0.89;62.71
41306;BME280;27051;50.376;19.152;2023-03-12T04:57:38;97654.33;;;-0.91;62.70
41306;BME280;27051;50.376;19.152;2023-03-12T05:00:05;97655.77;;;-0.93;62.72
41306;BME280;27051;50.376;19.152;2023-03-12T05:02:33;97651.98;;;-0.96;62.69
41306;BME280;27051;50.376;19.152;2023-03-12T05:05:00;97655.52;;;-0.97;62.74
41306;BME280;27051;50.376;19.152;2023-03-12T05:07:27;97655.67;;;-0.87;62.77
41306;BME280;27051;50.376;19.152;2023-03-12T05:09:55;97659.85;;;-0.69;62.54
41306;BME280;27051;50.376;19.152;2023-03-12T05:12:22;97660.31;;;-0.60;62.50
41306;BME280;27051;50.376;19.152;2023-03-12T05:14:49;97658.16;;;-0.54;62.39
41306;BME280;27051;50.376;19.152;2023-03-12T05:17:15;97663.02;;;-0.49;62.31
41306;BME280;27051;50.376;19.152;2023-03-12T05:19:43;97665.87;;;-0.43;62.20
41306;BME280;27051;50.376;19.152;2023-03-12T05:22:10;97664.20;;;-0.39;61.97
41306;BME280;27051;50.376;19.152;2023-03-12T05:24:36;97667.02;;;-0.35;62.00
41306;BME280;27051;50.376;19.152;2023-03-12T05:27:04;97668.67;;;-0.30;61.53
41306;BME280;27051;50.376;19.152;2023-03-12T05:29:31;97674.12;;;-0.31;61.36
41306;BME280;27051;50.376;19.152;2023-03-12T05:31:59;97673.03;;;-0.34;61.17
41306;BME280;27051;50.376;19.152;2023-03-12T05:34:26;97680.89;;;-0.32;61.72
41306;BME280;27051;50.376;19.152;2023-03-12T05:36:53;97687.05;;;-0.25;61.95
41306;BME280;27051;50.376;19.152;2023-03-12T05:39:20;97691.64;;;-0.19;61.52
41306;BME280;27051;50.376;19.152;2023-03-12T05:41:47;97688.62;;;-0.17;61.44
41306;BME280;27051;50.376;19.152;2023-03-12T05:44:14;97688.67;;;-0.17;60.82
41306;BME280;27051;50.376;19.152;2023-03-12T05:46:42;97686.94;;;-0.18;60.92
41306;BME280;27051;50.376;19.152;2023-03-12T05:49:09;97693.72;;;-0.15;60.87
41306;BME280;27051;50.376;19.152;2023-03-12T05:51:36;97694.59;;;-0.11;60.85
41306;BME280;27051;50.376;19.152;2023-03-12T05:54:03;97699.60;;;-0.06;60.95
41306;BME280;27051;50.376;19.152;2023-03-12T05:56:30;97705.16;;;-0.02;61.10
41306;BME280;27051;50.376;19.152;2023-03-12T05:58:57;97706.77;;;0.07;61.09
41306;BME280;27051;50.376;19.152;2023-03-12T06:01:27;97704.85;;;0.15;60.99
41306;BME280;27051;50.376;19.152;2023-03-12T06:03:56;97703.74;;;0.24;60.26
41306;BME280;27051;50.376;19.152;2023-03-12T06:06:48;97705.34;;;0.32;60.44
41306;BME280;27051;50.376;19.152;2023-03-12T06:09:16;97713.36;;;0.39;60.89
41306;BME280;27051;50.376;19.152;2023-03-12T06:11:42;97719.27;;;0.45;60.68
41306;BME280;27051;50.376;19.152;2023-03-12T06:14:11;97718.42;;;0.49;60.15
41306;BME280;27051;50.376;19.152;2023-03-12T06:16:38;97721.52;;;0.52;59.98
41306;BME280;27051;50.376;19.152;2023-03-12T06:19:04;97722.08;;;0.54;60.01
41306;BME280;27051;50.376;19.152;2023-03-12T06:21:35;97722.96;;;0.59;59.61
41306;BME280;27051;50.376;19.152;2023-03-12T06:24:02;97722.21;;;0.61;59.38
41306;BME280;27051;50.376;19.152;2023-03-12T06:26:28;97727.96;;;0.62;59.50
41306;BME280;27051;50.376;19.152;2023-03-12T06:28:55;97729.55;;;0.65;59.40
41306;BME280;27051;50.376;19.152;2023-03-12T06:31:22;97727.63;;;0.72;59.13
41306;BME280;27051;50.376;19.152;2023-03-12T06:33:49;97727.45;;;0.73;58.88
41306;BME280;27051;50.376;19.152;2023-03-12T06:36:16;97726.77;;;0.72;58.77
41306;BME280;27051;50.376;19.152;2023-03-12T06:38:43;97733.23;;;0.72;58.52
41306;BME280;27051;50.376;19.152;2023-03-12T06:41:15;97733.63;;;0.70;58.82
41306;BME280;27051;50.376;19.152;2023-03-12T06:43:43;97734.92;;;0.77;58.69
41306;BME280;27051;50.376;19.152;2023-03-12T06:46:16;97738.82;;;0.87;58.77
41306;BME280;27051;50.376;19.152;2023-03-12T06:48:43;97738.41;;;0.94;58.53
41306;BME280;27051;50.376;19.152;2023-03-12T06:51:11;97742.09;;;1.01;58.79
41306;BME280;27051;50.376;19.152;2023-03-12T06:53:38;97741.02;;;1.13;58.91
41306;BME280;27051;50.376;19.152;2023-03-12T06:56:06;97748.57;;;1.30;58.47
41306;BME280;27051;50.376;19.152;2023-03-12T06:58:33;97748.44;;;1.43;58.29
41306;BME280;27051;50.376;19.152;2023-03-12T07:00:59;97750.80;;;1.50;57.83
41306;BME280;27051;50.376;19.152;2023-03-12T07:03:26;97749.39;;;1.57;57.98
41306;BME280;27051;50.376;19.152;2023-03-12T07:05:54;97748.88;;;1.66;57.31
41306;BME280;27051;50.376;19.152;2023-03-12T07:08:21;97747.83;;;1.89;57.36
41306;BME280;27051;50.376;19.152;2023-03-12T07:10:48;97746.05;;;2.04;56.57
41306;BME280;27051;50.376;19.152;2023-03-12T07:13:15;97751.31;;;2.15;57.36
41306;BME280;27051;50.376;19.152;2023-03-12T07:15:43;97754.83;;;2.23;56.76
41306;BME280;27051;50.376;19.152;2023-03-12T07:18:10;97751.52;;;2.24;56.37
41306;BME280;27051;50.376;19.152;2023-03-12T07:20:39;97747.61;;;2.24;55.89
41306;BME280;27051;50.376;19.152;2023-03-12T07:23:07;97752.46;;;2.25;55.75
41306;BME280;27051;50.376;19.152;2023-03-12T07:25:36;97755.63;;;2.26;56.16
41306;BME280;27051;50.376;19.152;2023-03-12T07:28:03;97757.10;;;2.23;55.85
41306;BME280;27051;50.376;19.152;2023-03-12T07:30:30;97758.73;;;2.27;55.76
41306;BME280;27051;50.376;19.152;2023-03-12T07:33:02;97760.61;;;2.31;56.12
41306;BME280;27051;50.376;19.152;2023-03-12T07:35:29;97754.28;;;2.42;55.28
41306;BME280;27051;50.376;19.152;2023-03-12T07:37:57;97759.99;;;2.49;54.96
41306;BME280;27051;50.376;19.152;2023-03-12T07:40:24;97756.21;;;2.58;55.62
41306;BME280;27051;50.376;19.152;2023-03-12T07:42:51;97754.19;;;2.58;55.71
41306;BME280;27051;50.376;19.152;2023-03-12T07:45:18;97755.05;;;2.61;55.16
41306;BME280;27051;50.376;19.152;2023-03-12T07:47:45;97753.75;;;2.70;55.34
41306;BME280;27051;50.376;19.152;2023-03-12T07:50:13;97756.52;;;2.82;55.59
41306;BME280;27051;50.376;19.152;2023-03-12T07:52:40;97755.83;;;2.89;55.28
41306;BME280;27051;50.376;19.152;2023-03-12T07:55:08;97750.86;;;3.00;55.15
41306;BME280;27051;50.376;19.152;2023-03-12T07:57:35;97747.25;;;3.10;54.72
41306;BME280;27051;50.376;19.152;2023-03-12T08:00:03;97753.43;;;3.17;55.26
41306;BME280;27051;50.376;19.152;2023-03-12T08:02:29;97754.88;;;3.23;55.10
41306;BME280;27051;50.376;19.152;2023-03-12T08:04:56;97752.71;;;3.38;54.78
41306;BME280;27051;50.376;19.152;2023-03-12T08:07:23;97756.20;;;3.51;54.05
41306;BME280;27051;50.376;19.152;2023-03-12T08:09:49;97763.53;;;3.64;54.68
41306;BME280;27051;50.376;19.152;2023-03-12T08:12:16;97763.29;;;3.70;53.69
41306;BME280;27051;50.376;19.152;2023-03-12T08:14:43;97767.64;;;3.71;53.98
41306;BME280;27051;50.376;19.152;2023-03-12T08:17:10;97763.70;;;3.68;52.85
41306;BME280;27051;50.376;19.152;2023-03-12T08:19:36;97761.42;;;3.66;53.82
41306;BME280;27051;50.376;19.152;2023-03-12T08:22:05;97759.84;;;3.77;53.55
41306;BME280;27051;50.376;19.152;2023-03-12T08:24:32;97767.95;;;3.85;52.68
41306;BME280;27051;50.376;19.152;2023-03-12T08:26:59;97766.21;;;3.81;53.55
41306;BME280;27051;50.376;19.152;2023-03-12T08:29:26;97766.88;;;3.87;53.76
41306;BME280;27051;50.376;19.152;2023-03-12T08:31:52;97770.45;;;3.89;53.35
41306;BME280;27051;50.376;19.152;2023-03-12T08:34:20;97768.79;;;3.92;53.60
41306;BME280;27051;50.376;19.152;2023-03-12T08:36:47;97771.14;;;4.01;53.42
41306;BME280;27051;50.376;19.152;2023-03-12T08:39:14;97774.22;;;4.09;53.30
41306;BME280;27051;50.376;19.152;2023-03-12T08:41:40;97777.45;;;4.18;53.63
41306;BME280;27051;50.376;19.152;2023-03-12T08:44:07;97777.69;;;4.26;52.91
41306;BME280;27051;50.376;19.152;2023-03-12T08:46:34;97773.40;;;4.27;52.80
41306;BME280;27051;50.376;19.152;2023-03-12T08:49:01;97779.96;;;4.37;53.71
41306;BME280;27051;50.376;19.152;2023-03-12T08:51:27;97789.77;;;4.51;53.51
41306;BME280;27051;50.376;19.152;2023-03-12T08:53:54;97786.27;;;4.60;53.32
41306;BME280;27051;50.376;19.152;2023-03-12T08:56:21;97789.20;;;4.80;53.07
41306;BME280;27051;50.376;19.152;2023-03-12T08:58:48;97796.16;;;4.84;52.76
41306;BME280;27051;50.376;19.152;2023-03-12T09:01:14;97795.95;;;4.71;52.12
41306;BME280;27051;50.376;19.152;2023-03-12T09:03:41;97795.34;;;4.66;52.58
41306;BME280;27051;50.376;19.152;2023-03-12T09:06:10;97790.05;;;4.74;52.97
41306;BME280;27051;50.376;19.152;2023-03-12T09:08:40;97793.94;;;4.84;52.41
41306;BME280;27051;50.376;19.152;2023-03-12T09:11:08;97794.65;;;4.89;52.86
41306;BME280;27051;50.376;19.152;2023-03-12T09:13:35;97797.31;;;5.04;52.43
41306;BME280;27051;50.376;19.152;2023-03-12T09:16:02;97795.25;;;5.17;52.59
41306;BME280;27051;50.376;19.152;2023-03-12T09:18:29;97792.80;;;5.28;52.74
41306;BME280;27051;50.376;19.152;2023-03-12T09:20:56;97788.31;;;5.52;52.90
41306;BME280;27051;50.376;19.152;2023-03-12T09:23:23;97789.48;;;5.70;52.40
41306;BME280;27051;50.376;19.152;2023-03-12T09:25:50;97786.74;;;5.77;52.07
41306;BME280;27051;50.376;19.152;2023-03-12T09:28:16;97789.50;;;5.93;51.92
41306;BME280;27051;50.376;19.152;2023-03-12T09:30:44;97787.92;;;6.31;52.55
41306;BME280;27051;50.376;19.152;2023-03-12T09:33:11;97784.92;;;6.74;51.82
41306;BME280;27051;50.376;19.152;2023-03-12T09:35:37;97786.82;;;7.01;51.87
41306;BME280;27051;50.376;19.152;2023-03-12T09:38:04;97783.75;;;7.31;50.87
41306;BME280;27051;50.376;19.152;2023-03-12T09:40:32;97784.21;;;7.73;51.03
41306;BME280;27051;50.376;19.152;2023-03-12T09:43:04;97779.92;;;8.19;50.32
41306;BME280;27051;50.376;19.152;2023-03-12T09:45:36;97780.91;;;8.67;49.94
41306;BME280;27051;50.376;19.152;2023-03-12T09:48:05;97781.46;;;8.86;48.95
41306;BME280;27051;50.376;19.152;2023-03-12T09:50:33;97780.20;;;8.85;48.48
41306;BME280;27051;50.376;19.152;2023-03-12T09:53:30;97782.71;;;8.87;48.53
41306;BME280;27051;50.376;19.152;2023-03-12T09:56:00;97784.89;;;8.71;47.37
41306;BME280;27051;50.376;19.152;2023-03-12T09:58:33;97782.40;;;8.37;47.36
41306;BME280;27051;50.376;19.152;2023-03-12T10:06:37;97778.40;;;8.03;48.40
41306;BME280;27051;50.376;19.152;2023-03-12T10:09:28;97783.82;;;7.96;47.91
41306;BME280;27051;50.376;19.152;2023-03-12T10:12:32;97795.14;;;7.88;48.28
41306;BME280;27051;50.376;19.152;2023-03-12T10:17:53;97790.98;;;7.61;47.93
41306;BME280;27051;50.376;19.152;2023-03-12T10:20:55;97795.36;;;7.79;48.71
41306;BME280;27051;50.376;19.152;2023-03-12T10:26:46;97791.27;;;8.04;48.32
41306;BME280;27051;50.376;19.152;2023-03-12T10:29:18;97790.48;;;8.83;48.19
41306;BME280;27051;50.376;19.152;2023-03-12T10:31:48;97783.85;;;9.58;47.76
41306;BME280;27051;50.376;19.152;2023-03-12T10:34:37;97785.48;;;10.00;47.94
41306;BME280;27051;50.376;19.152;2023-03-12T10:37:13;97786.63;;;10.23;46.90
41306;BME280;27051;50.376;19.152;2023-03-12T10:39:41;97786.61;;;10.05;46.01
41306;BME280;27051;50.376;19.152;2023-03-12T10:42:14;97790.95;;;10.35;45.76
41306;BME280;27051;50.376;19.152;2023-03-12T10:44:41;97788.61;;;10.48;45.24
41306;BME280;27051;50.376;19.152;2023-03-12T10:47:51;97790.88;;;10.74;45.32
41306;BME280;27051;50.376;19.152;2023-03-12T10:50:37;97785.35;;;11.29;44.24
41306;BME280;27051;50.376;19.152;2023-03-12T10:55:40;97791.53;;;11.62;43.61
41306;BME280;27051;50.376;19.152;2023-03-12T10:58:21;97789.48;;;11.55;43.88
41306;BME280;27051;50.376;19.152;2023-03-12T11:00:57;97790.67;;;11.58;43.11
41306;BME280;27051;50.376;19.152;2023-03-12T11:03:24;97785.38;;;12.20;43.38
41306;BME280;27051;50.376;19.152;2023-03-12T11:05:53;97788.02;;;12.21;42.85
41306;BME280;27051;50.376;19.152;2023-03-12T11:08:32;97786.94;;;12.00;43.13
41306;BME280;27051;50.376;19.152;2023-03-12T11:11:01;97789.61;;;11.73;43.14
41306;BME280;27051;50.376;19.152;2023-03-12T11:13:35;97790.13;;;11.80;43.04
41306;BME280;27051;50.376;19.152;2023-03-12T11:19:01;97789.94;;;11.89;42.38
41306;BME280;27051;50.376;19.152;2023-03-12T11:21:31;97796.91;;;11.92;42.33
41306;BME280;27051;50.376;19.152;2023-03-12T11:26:32;97790.77;;;12.34;42.34
41306;BME280;27051;50.376;19.152;2023-03-12T11:29:10;97791.30;;;13.59;41.48
41306;BME280;27051;50.376;19.152;2023-03-12T11:31:42;97791.25;;;13.44;40.57
41306;BME280;27051;50.376;19.152;2023-03-12T11:34:21;97782.13;;;14.36;40.66
41306;BME280;27051;50.376;19.152;2023-03-12T11:39:44;97780.23;;;15.18;39.77
41306;BME280;27051;50.376;19.152;2023-03-12T11:42:39;97778.60;;;14.70;39.36
41306;BME280;27051;50.376;19.152;2023-03-12T11:50:46;97784.13;;;12.87;40.00
41306;BME280;27051;50.376;19.152;2023-03-12T11:53:19;97789.56;;;12.56;39.63
41306;BME280;27051;50.376;19.152;2023-03-12T12:04:53;97774.31;;;16.34;36.14
41306;BME280;27051;50.376;19.152;2023-03-12T12:16:22;97770.26;;;21.57;32.12
41306;BME280;27051;50.376;19.152;2023-03-12T12:22:19;97761.20;;;24.48;30.07
41306;BME280;27051;50.376;19.152;2023-03-12T12:28:03;97760.63;;;26.47;29.34
41306;BME280;27051;50.376;19.152;2023-03-12T12:35:38;97765.91;;;29.47;26.67
41306;BME280;27051;50.376;19.152;2023-03-12T12:38:12;97760.34;;;30.16;25.75
41306;BME280;27051;50.376;19.152;2023-03-12T12:40:43;97758.11;;;30.79;25.57
41306;BME280;27051;50.376;19.152;2023-03-12T12:43:27;97756.53;;;30.78;23.79
41306;BME280;27051;50.376;19.152;2023-03-12T12:45:59;97761.02;;;30.70;23.39
41306;BME280;27051;50.376;19.152;2023-03-12T12:48:33;97759.00;;;29.68;23.51
41306;BME280;27051;50.376;19.152;2023-03-12T12:51:03;97755.94;;;28.73;23.40
41306;BME280;27051;50.376;19.152;2023-03-12T12:53:52;97758.50;;;27.53;23.75
41306;BME280;27051;50.376;19.152;2023-03-12T12:56:31;97751.86;;;28.38;23.21
41306;BME280;27051;50.376;19.152;2023-03-12T13:01:50;97756.81;;;30.62;20.87
41306;BME280;27051;50.376;19.152;2023-03-12T13:04:35;97753.58;;;30.83;20.12
41306;BME280;27051;50.376;19.152;2023-03-12T13:09:47;97761.45;;;30.10;19.14
41306;BME280;27051;50.376;19.152;2023-03-12T13:12:24;97758.92;;;30.28;19.17
41306;BME280;27051;50.376;19.152;2023-03-12T13:14:54;97752.37;;;30.91;19.88
41306;BME280;27051;50.376;19.152;2023-03-12T13:17:27;97754.52;;;31.94;18.84
41306;BME280;27051;50.376;19.152;2023-03-12T13:22:48;97751.54;;;32.34;17.81
41306;BME280;27051;50.376;19.152;2023-03-12T13:30:52;97749.70;;;25.84;19.20
41306;BME280;27051;50.376;19.152;2023-03-12T13:33:51;97755.82;;;24.38;19.75
41306;BME280;27051;50.376;19.152;2023-03-12T13:36:21;97762.36;;;22.79;20.28
41306;BME280;27051;50.376;19.152;2023-03-12T13:41:37;97762.47;;;20.38;20.95
41306;BME280;27051;50.376;19.152;2023-03-12T13:57:43;97776.73;;;15.85;23.14
41306;BME280;27051;50.376;19.152;2023-03-12T14:00:26;97778.47;;;15.76;23.58
41306;BME280;27051;50.376;19.152;2023-03-12T14:05:21;97784.11;;;15.63;24.12
41306;BME280;27051;50.376;19.152;2023-03-12T14:10:35;97788.74;;;15.09;24.59
41306;BME280;27051;50.376;19.152;2023-03-12T14:13:15;97791.73;;;14.67;24.88
41306;BME280;27051;50.376;19.152;2023-03-12T14:15:50;97792.23;;;14.33;25.10
41306;BME280;27051;50.376;19.152;2023-03-12T14:18:22;97792.08;;;13.85;25.43
41306;BME280;27051;50.376;19.152;2023-03-12T14:20:57;97797.75;;;13.25;25.58
41306;BME280;27051;50.376;19.152;2023-03-12T14:23:29;97797.20;;;12.84;26.07
41306;BME280;27051;50.376;19.152;2023-03-12T14:26:01;97800.18;;;12.56;26.22
41306;BME280;27051;50.376;19.152;2023-03-12T14:28:29;97802.48;;;12.33;26.55
41306;BME280;27051;50.376;19.152;2023-03-12T14:31:13;97797.70;;;12.33;26.98
41306;BME280;27051;50.376;19.152;2023-03-12T14:34:15;97800.33;;;12.60;26.81
41306;BME280;27051;50.376;19.152;2023-03-12T14:39:42;97793.16;;;15.14;26.41
41306;BME280;27051;50.376;19.152;2023-03-12T14:42:22;97799.92;;;17.38;25.24
41306;BME280;27051;50.376;19.152;2023-03-12T14:47:39;97803.35;;;16.06;24.39
41306;BME280;27051;50.376;19.152;2023-03-12T14:50:14;97802.41;;;15.30;25.10
41306;BME280;27051;50.376;19.152;2023-03-12T14:52:41;97800.78;;;14.61;25.35
41306;BME280;27051;50.376;19.152;2023-03-12T14:55:16;97809.44;;;14.10;25.72
41306;BME280;27051;50.376;19.152;2023-03-12T14:57:44;97808.39;;;13.57;26.17